• Join FlightAware (Why Join?)
  • Login
  • US Flag 
07:14AM EDT


 

Airport Tracker/Info


-or-


 

Live Flight TrackerFlight Track Log ✈ EJA230 ✈ 25-Jul-2013 ✈ KASE - KOAK

Flight Track Log - Related Links

Times and Time Zones

All times are in EDT time to prevent confusion due to time zone crossing. See the EJA230 flight status page for this flight to view local times or setup timezone preferences in your user account.

Time Position Orientation Groundspeed Altitude Reporting Facility
EDT Latitude Longitude Course Direction KTS MPH feet Rate Location/Type
02:23PM 39.2739 -106.8833 268° West 217 250 9,500  Level Denver Center
02:24PM 39.2997 -106.9561 295° West 226 260 10,900 1,380 Climbing Denver Center
02:25PM 39.3189 -107.0517 285° West 270 311 12,400 2,160 Climbing Denver Center
02:26PM 39.3678 -107.1408 305° West 298 343 15,400 2,700 Climbing Denver Center
02:27PM 39.3567 -107.2550 263° West 326 375 18,100 2,700 Climbing Denver Center
02:28PM 39.1978 -107.5790 268° West  Level Estimated
02:28PM 39.3339 -107.3814 257° West 323 372 21,100  Level Denver Center
02:29PM 39.3236 -107.4944 263° West 340 391 23,600 2,220 Climbing Denver Center
02:30PM 39.3358 -107.6306 277° West 357 411 25,800 1,140 Climbing Denver Center
02:31PM 39.3042 -107.7622 253° West 402 463 26,000 1,320 Climbing Denver Center
02:32PM 39.2347 -107.9153 240° Southwest 435 501 28,600 2,280 Climbing Denver Center
02:33PM 39.2061 -108.0519 255° West 412 474 30,800 2,220 Climbing Denver Center
02:34PM 39.1750 -108.2136 256° West 414 476 33,300 2,040 Climbing Denver Center
02:35PM 39.1536 -108.3253 256° West 402 463 35,100 2,040 Climbing Denver Center
02:36PM 39.1167 -108.5033 255° West 411 473 37,600 2,220 Climbing Denver Center
02:37PM 39.0917 -108.6339 256° West 392 451 39,800 1,140 Climbing Denver Center
02:38PM 39.0664 -108.7606 256° West 382 440 40,000 60 Climbing Denver Center
02:39PM 39.0403 -108.9181 258° West 401 461 40,000  Level Denver Center
02:40PM 39.0214 -109.0525 260° West 399 459 40,000  Level Denver Center
02:41PM 38.9981 -109.2103 259° West 401 461 40,000  Level Denver Center
02:42PM 38.9767 -109.3436 258° West 398 458 40,000  Level Denver Center
02:44PM 38.9542 -109.5014 260° West 398 458 40,000  Level Denver Center
02:45PM 38.9333 -109.6361 259° West 399 459 40,000  Level Denver Center
02:46PM 38.9067 -109.8175 259° West 404 465 40,000  Level Denver Center
02:46PM 38.8953 -109.8853 258° West 404 465 40,000  Level Salt Lake Center
02:47PM 38.8711 -110.0428 259° West 404 465 40,000  Level Salt Lake Center
02:48PM 38.8494 -110.1758 258° West 400 460 40,000  Level Salt Lake Center
02:49PM 38.8228 -110.3314 258° West 400 460 40,000  Level Salt Lake Center
02:51PM 38.8128 -110.4672 265° West 398 458 40,000  Level Salt Lake Center
02:52PM 38.8100 -110.6306 269° West 405 466 40,000  Level Salt Lake Center
02:53PM 38.8044 -110.7669 267° West 402 463 40,000  Level Salt Lake Center
02:54PM 38.7958 -110.9253 266° West 400 460 40,000  Level Salt Lake Center
02:55PM 38.7903 -111.0700 267° West 402 463 40,000  Level Salt Lake Center
02:56PM 38.7822 -111.2114 266° West 400 460 40,000  Level Salt Lake Center
02:57PM 38.7758 -111.3542 267° West 402 463 40,000  Level Salt Lake Center
02:58PM 38.7697 -111.4986 267° West 405 466 40,000  Level Salt Lake Center
02:59PM 38.7611 -111.6400 266° West 402 463 40,000  Level Salt Lake Center
03:00PM 38.7531 -111.8122 267° West 405 466 40,000  Level Salt Lake Center
03:01PM 38.7450 -111.9539 266° West 402 463 40,000  Level Salt Lake Center
03:02PM 38.7367 -112.0964 266° West 403 464 40,000  Level Salt Lake Center
03:03PM 38.7286 -112.2442 266° West 403 464 40,000  Level Salt Lake Center
03:04PM 38.7197 -112.3825 265° West 405 466 40,000  Level Salt Lake Center
03:05PM 38.7094 -112.5528 266° West 403 464 40,000  Level Salt Lake Center
03:06PM 38.7011 -112.6967 266° West 404 465 40,000  Level Salt Lake Center
03:07PM 38.6922 -112.8392 265° West 405 466 40,000  Level Salt Lake Center
03:08PM 38.6836 -112.9814 266° West 403 464 40,000  Level Salt Lake Center
03:09PM 38.6742 -113.1264 265° West 407 468 40,000  Level Salt Lake Center
03:10PM 38.6644 -113.2694 265° West 408 470 40,000  Level Salt Lake Center
03:11PM 38.6528 -113.4414 265° West 408 470 40,000  Level Salt Lake Center
03:12PM 38.6431 -113.5842 265° West 405 466 40,000  Level Salt Lake Center
03:13PM 38.6336 -113.7269 265° West 405 466 40,000  Level Salt Lake Center
03:14PM 38.6231 -113.8708 265° West 407 468 40,000  Level Salt Lake Center
03:15PM 38.6125 -114.0153 265° West 409 471 40,000  Level Salt Lake Center
03:16PM 38.6000 -114.1892 265° West 409 471 40,000  Level Salt Lake Center
03:17PM 38.5892 -114.3347 265° West 412 474 40,000  Level Salt Lake Center
03:18PM 38.5764 -114.4772 264° West 408 470 40,000  Level Salt Lake Center
03:19PM 38.5669 -114.6200 265° West 406 467 40,000  Level Salt Lake Center
03:21PM 38.5550 -114.7639 264° West 409 471 40,000  Level Salt Lake Center
03:22PM 38.5442 -114.9078 265° West 409 471 40,000  Level Salt Lake Center
03:23PM 38.5294 -115.0817 264° West 411 473 40,000  Level Salt Lake Center
03:24PM 38.5178 -115.2281 264° West 414 476 40,000  Level Salt Lake Center
03:25PM 38.5056 -115.3703 264° West 414 476 40,000  Level Salt Lake Center
03:26PM 38.4936 -115.5153 264° West 412 474 40,000  Level Salt Lake Center
03:27PM 38.4814 -115.6619 264° West 414 476 40,000  Level Salt Lake Center
03:28PM 38.4653 -115.8364 263° West 414 476 40,000  Level Salt Lake Center
03:29PM 38.4508 -115.9811 263° West 413 475 40,000  Level Salt Lake Center
03:30PM 38.4381 -116.1286 264° West 416 479 40,000  Level Salt Lake Center
03:31PM 38.4244 -116.2750 263° West 417 480 40,000  Level Salt Lake Center
03:32PM 38.4114 -116.4214 264° West 417 480 40,000  Level Salt Lake Center
03:33PM 38.3978 -116.5694 263° West 420 483 40,000  Level Salt Lake Center
03:34PM 38.3814 -116.7447 263° West 417 480 40,000  Level Salt Lake Center
03:35PM 38.3681 -116.8900 263° West 416 479 40,000  Level Salt Lake Center
03:36PM 38.3533 -117.0364 263° West 418 481 40,000  Level Salt Lake Center
03:37PM 38.3397 -117.1808 263° West 418 481 40,000  Level Salt Lake Center
03:38PM 38.3244 -117.3261 262° West 421 484 40,000  Level Salt Lake Center
03:39PM 38.3022 -117.4986 261° West 418 481 40,000  Level Salt Lake Center
03:40PM 38.2842 -117.6444 261° West 419 482 40,000  Level Salt Lake Center
03:41PM 38.2656 -117.7894 261° West 418 481 40,000  Level Salt Lake Center
03:42PM 38.2461 -117.9372 261° West 422 486 40,000  Level Salt Lake Center
03:43PM 38.2283 -118.0836 261° West 420 483 40,000  Level Salt Lake Center
03:44PM 38.2042 -118.2606 260° West 424 488 40,000  Level Oakland Center
03:45PM 38.1856 -118.4078 261° West 422 486 40,000  Level Oakland Center
03:46PM 38.1617 -118.5867 260° West 425 489 40,000  Level Oakland Center
03:48PM 38.1425 -118.7339 261° West 423 487 40,000  Level Oakland Center
03:49PM 38.1228 -118.8772 260° West 418 481 40,000  Level Oakland Center
03:50PM 38.1031 -119.0233 260° West 418 481 40,000  Level Oakland Center
03:51PM 38.0822 -119.1761 260° West 421 484 40,000  Level Oakland Center
03:52PM 38.0608 -119.3228 260° West 422 486 40,000  Level Oakland Center
03:53PM 38.0408 -119.4686 260° West 419 482 40,000 -900 Level Oakland Center
03:54PM 38.0222 -119.6144 261° West 420 483 38,200 -1,860 Descending Oakland Center
03:55PM 38.0008 -119.7611 260° West 423 487 36,200 -1,980 Descending Oakland Center
03:56PM 37.9794 -119.9069 260° West 421 484 34,200 -2,220 Descending Oakland Center
03:57PM 37.9522 -120.0889 259° West 437 503 31,700 -2,040 Descending Oakland Center
03:58PM 37.9283 -120.2467 259° West 453 521 30,100 -840 Descending Oakland Center
03:59PM 37.9047 -120.4094 260° West 466 536 30,000 -1,380 Descending Oakland Center
04:00PM 37.8808 -120.5650 259° West 455 524 27,300 -1,680 Descending Oakland Center
04:01PM 37.8622 -120.7044 260° West 408 470 26,600 -840 Descending Oakland Center
04:02PM 37.8542 -120.8483 266° West 410 472 25,700 -960 Descending Oakland Center
04:03PM 37.8461 -120.9817 266° West 386 444 24,700 -1,320 Descending Oakland Center
04:04PM 37.8333 -121.1500 265° West 341 392 22,800 -2,040 Descending Northern Cal TRACON
04:05PM 37.8000 -121.2667 250° West 430 495 20,100 -3,060 Descending Northern Cal TRACON
04:06PM 37.7667 -121.3667 247° West 343 395 16,700 -3,660 Descending Northern Cal TRACON
04:07PM 37.7833 -121.5000 279° West 383 441 12,800 -2,760 Descending Northern Cal TRACON
04:08PM 37.8167 -121.6167 290° West 343 395 11,200 -1,440 Descending Northern Cal TRACON
04:09PM 37.8000 -121.7167 258° West 289 333 10,000 -1,320 Descending Northern Cal TRACON
04:10PM 37.7500 -121.8000 233° Southwest 269 310 8,600 -1,560 Descending Northern Cal TRACON
04:11PM 37.7000 -121.8667 227° Southwest 262 302 6,900 -1,740 Descending Northern Cal TRACON
04:12PM 37.6667 -121.9333 238° Southwest 264 304 5,200 -1,560 Descending Northern Cal TRACON
04:13PM 37.6667 -122.0167 270° West 250 288 4,000 -1,320 Descending Northern Cal TRACON
04:14PM 37.6833 -122.0833 288° West 194 223 2,800 -1,200 Descending Northern Cal TRACON
04:15PM 37.7000 -122.1333 293° West 125 144 1,600 -1,080 Descending Northern Cal TRACON
04:16PM 37.7167 -122.1667 302° West 125 144 700 -720 Descending Northern Cal TRACON
04:17PM 37.7167 -122.2167 270° West 119 137 200 -540 Descending Northern Cal TRACON
04:19PM 37.7213 -122.2207 270° West  Level Estimated
04:26PM 37.7167 -122.2167 270° West  Level FlightAware Approximate
04:27PM 37.7213 -122.2207 270° West  Level Estimated